createdAt,value
2023-02-26T00:01:28.510Z,8.57
2023-02-26T00:03:57.865Z,8.52
2023-02-26T00:06:26.856Z,8.52
2023-02-26T00:08:55.209Z,9.30
2023-02-26T00:11:23.216Z,8.43
2023-02-26T00:13:51.150Z,8.40
2023-02-26T00:16:24.584Z,8.45
2023-02-26T00:18:51.765Z,8.32
2023-02-26T00:21:20.992Z,9.07
2023-02-26T00:23:48.232Z,9.10
2023-02-26T00:26:15.486Z,9.30
2023-02-26T00:28:42.838Z,9.00
2023-02-26T00:31:10.554Z,8.40
2023-02-26T00:33:38.113Z,8.75
2023-02-26T00:36:22.874Z,9.45
2023-02-26T00:38:56.013Z,8.23
2023-02-26T00:41:23.193Z,8.88
2023-02-26T00:43:50.308Z,8.30
2023-02-26T00:46:23.827Z,7.78
2023-02-26T00:48:50.917Z,8.25
2023-02-26T00:51:41.750Z,8.60
2023-02-26T00:54:18.016Z,9.07
2023-02-26T00:56:44.939Z,8.20
2023-02-26T00:59:11.897Z,9.55
2023-02-26T01:01:38.994Z,8.27
2023-02-26T01:04:06.760Z,7.93
2023-02-26T01:06:35.571Z,7.70
2023-02-26T01:09:13.333Z,9.23
2023-02-26T01:11:40.461Z,8.25
2023-02-26T01:14:07.870Z,8.85
2023-02-26T01:16:50.911Z,9.23
2023-02-26T01:19:49.891Z,8.52
2023-02-26T01:22:25.729Z,8.15
2023-02-26T01:25:01.785Z,7.75
2023-02-26T01:27:28.904Z,8.48
2023-02-26T01:29:56.113Z,8.18
2023-02-26T01:32:23.138Z,9.05
2023-02-26T01:34:55.778Z,8.15
2023-02-26T01:37:34.663Z,8.10
2023-02-26T01:40:39.233Z,7.55
2023-02-26T01:43:13.227Z,7.70
2023-02-26T01:45:55.392Z,7.85
2023-02-26T01:48:37.449Z,7.50
2023-02-26T01:51:05.672Z,8.05
2023-02-26T01:53:32.650Z,7.85
2023-02-26T01:56:18.432Z,7.90
2023-02-26T01:58:49.470Z,7.10
2023-02-26T02:01:16.401Z,7.15
2023-02-26T02:03:43.825Z,7.55
2023-02-26T02:06:17.956Z,7.35
2023-02-26T02:08:45.876Z,7.18
2023-02-26T02:11:14.827Z,6.57
2023-02-26T02:13:57.122Z,6.72
2023-02-26T02:16:45.590Z,6.47
2023-02-26T02:19:38.119Z,6.43
2023-02-26T02:22:32.622Z,6.60
2023-02-26T02:25:25.322Z,6.85
2023-02-26T02:27:59.305Z,7.18
2023-02-26T02:30:58.461Z,6.63
2023-02-26T02:33:36.896Z,6.43
2023-02-26T02:36:13.749Z,6.32
2023-02-26T02:38:58.174Z,6.35
2023-02-26T02:41:32.713Z,5.57
2023-02-26T02:44:07.435Z,5.95
2023-02-26T02:46:43.566Z,6.60
2023-02-26T02:49:17.032Z,5.80
2023-02-26T02:52:01.927Z,5.20
2023-02-26T02:54:44.750Z,5.57
2023-02-26T02:57:20.114Z,4.53
2023-02-26T02:59:51.552Z,4.78
2023-02-26T03:02:35.952Z,4.32
2023-02-26T03:05:05.573Z,4.20
2023-02-26T03:07:36.979Z,4.78
2023-02-26T03:10:04.172Z,4.93
2023-02-26T03:12:34.023Z,4.63
2023-02-26T03:15:02.661Z,4.70
2023-02-26T03:17:48.088Z,4.75
2023-02-26T03:21:05.582Z,5.30
2023-02-26T03:23:46.856Z,5.75
2023-02-26T03:26:25.476Z,5.57
2023-02-26T03:28:59.366Z,5.80
2023-02-26T03:31:59.637Z,5.00
2023-02-26T03:34:43.456Z,5.45
2023-02-26T03:37:24.465Z,4.80
2023-02-26T03:39:56.437Z,5.75
2023-02-26T03:42:33.266Z,5.45
2023-02-26T03:45:22.827Z,5.30
2023-02-26T03:47:54.185Z,5.00
2023-02-26T03:50:34.394Z,5.07
2023-02-26T03:53:44.455Z,4.97
2023-02-26T03:56:20.623Z,4.93
2023-02-26T03:59:08.784Z,5.82
2023-02-26T04:02:02.667Z,5.68
2023-02-26T04:04:48.957Z,5.30
2023-02-26T04:07:18.929Z,4.75
2023-02-26T04:09:48.707Z,5.30
2023-02-26T04:12:16.270Z,5.05
2023-02-26T04:14:47.426Z,4.88
2023-02-26T04:17:14.523Z,5.00
2023-02-26T04:19:41.425Z,4.68
2023-02-26T04:22:08.572Z,4.97
2023-02-26T04:24:36.740Z,4.82
2023-02-26T04:27:04.082Z,10.50
2023-02-26T04:29:32.389Z,4.85
2023-02-26T04:31:59.642Z,5.25
2023-02-26T04:34:26.884Z,4.75
2023-02-26T04:36:54.130Z,5.20
2023-02-26T04:39:21.394Z,4.43
2023-02-26T04:41:49.011Z,4.82
2023-02-26T04:44:16.052Z,4.05
2023-02-26T04:46:45.400Z,4.43
2023-02-26T04:49:12.926Z,4.20
2023-02-26T04:51:44.200Z,4.15
2023-02-26T04:54:16.030Z,4.20
2023-02-26T04:56:43.055Z,4.20
2023-02-26T04:59:09.965Z,3.78
2023-02-26T05:01:37.103Z,4.20
2023-02-26T05:04:07.854Z,3.97
2023-02-26T05:06:35.405Z,3.97
2023-02-26T05:09:02.285Z,4.22
2023-02-26T05:11:30.668Z,4.13
2023-02-26T05:13:57.708Z,3.72
2023-02-26T05:16:24.920Z,3.95
2023-02-26T05:18:52.168Z,4.10
2023-02-26T05:21:19.770Z,3.65
2023-02-26T05:23:46.847Z,3.13
2023-02-26T05:26:13.751Z,4.13
2023-02-26T05:28:41.445Z,3.55
2023-02-26T05:31:08.785Z,4.15
2023-02-26T05:33:35.776Z,3.50
2023-02-26T05:36:02.797Z,3.45
2023-02-26T05:38:29.750Z,3.40
2023-02-26T05:40:58.321Z,3.72
2023-02-26T05:43:26.465Z,3.35
2023-02-26T05:45:54.234Z,3.28
2023-02-26T05:48:22.180Z,3.55
2023-02-26T05:50:50.590Z,3.50
2023-02-26T05:53:18.412Z,3.13
2023-02-26T05:55:45.578Z,3.85
2023-02-26T05:58:13.303Z,3.50
2023-02-26T06:00:40.261Z,3.47
2023-02-26T06:03:07.147Z,3.75
2023-02-26T06:05:36.186Z,3.67
2023-02-26T06:08:04.309Z,3.33
2023-02-26T06:10:32.803Z,3.47
2023-02-26T06:12:59.754Z,3.80
2023-02-26T06:15:26.637Z,3.45
2023-02-26T06:17:53.492Z,3.13
2023-02-26T06:20:20.539Z,3.63
2023-02-26T06:22:47.440Z,3.92
2023-02-26T06:25:14.410Z,3.90
2023-02-26T06:27:41.246Z,3.55
2023-02-26T06:30:08.820Z,3.50
2023-02-26T06:32:36.145Z,4.05
2023-02-26T06:35:03.210Z,4.00
2023-02-26T06:37:30.074Z,3.45
2023-02-26T06:39:57.036Z,3.75
2023-02-26T06:42:24.353Z,3.65
2023-02-26T06:44:51.295Z,3.50
2023-02-26T06:47:18.308Z,3.55
2023-02-26T06:49:45.206Z,3.45
2023-02-26T06:52:13.558Z,3.75
2023-02-26T06:54:40.730Z,3.63
2023-02-26T06:57:07.785Z,3.25
2023-02-26T06:59:34.723Z,3.55
2023-02-26T07:02:01.689Z,3.45
2023-02-26T07:04:28.640Z,3.55
2023-02-26T07:06:55.561Z,3.30
2023-02-26T07:09:22.545Z,4.20
2023-02-26T07:11:49.421Z,3.88
2023-02-26T07:14:17.626Z,3.78
2023-02-26T07:16:44.561Z,3.63
2023-02-26T07:19:11.496Z,4.00
2023-02-26T07:21:38.434Z,4.10
2023-02-26T07:24:05.797Z,3.78
2023-02-26T07:26:32.874Z,3.97
2023-02-26T07:28:59.775Z,4.30
2023-02-26T07:31:26.790Z,3.72
2023-02-26T07:33:54.238Z,4.50
2023-02-26T07:36:21.117Z,4.78
2023-02-26T07:38:48.015Z,5.90
2023-02-26T07:41:15.167Z,5.10
2023-02-26T07:43:42.875Z,4.32
2023-02-26T07:46:10.346Z,4.30
2023-02-26T07:48:37.328Z,4.43
2023-02-26T07:51:04.926Z,4.45
2023-02-26T07:53:31.863Z,4.13
2023-02-26T07:55:58.823Z,4.30
2023-02-26T07:58:26.096Z,4.90
2023-02-26T08:00:53.144Z,3.70
2023-02-26T08:03:20.513Z,4.07
2023-02-26T08:05:47.589Z,3.85
2023-02-26T08:08:14.744Z,4.10
2023-02-26T08:10:42.292Z,3.58
2023-02-26T08:13:09.966Z,3.70
2023-02-26T08:15:36.924Z,3.58
2023-02-26T08:18:04.289Z,3.58
2023-02-26T08:20:31.337Z,3.75
2023-02-26T08:22:58.380Z,3.83
2023-02-26T08:25:25.245Z,4.03
2023-02-26T08:27:52.235Z,3.85
2023-02-26T08:30:19.448Z,3.70
2023-02-26T08:32:46.427Z,4.03
2023-02-26T08:35:13.995Z,4.65
2023-02-26T08:37:40.839Z,4.82
2023-02-26T08:40:09.327Z,4.68
2023-02-26T08:42:36.714Z,3.65
2023-02-26T08:45:03.977Z,4.20
2023-02-26T08:47:31.980Z,3.95
2023-02-26T08:49:59.135Z,3.78
2023-02-26T08:52:26.502Z,3.78
2023-02-26T08:54:53.409Z,3.97
2023-02-26T08:57:20.390Z,3.65
2023-02-26T08:59:47.256Z,4.55
2023-02-26T09:02:14.906Z,4.32
2023-02-26T09:04:41.845Z,3.45
2023-02-26T09:07:08.821Z,4.32
2023-02-26T09:09:35.802Z,3.83
2023-02-26T09:12:02.768Z,3.53
2023-02-26T09:14:29.807Z,4.00
2023-02-26T09:16:56.791Z,3.65
2023-02-26T09:19:23.953Z,4.35
2023-02-26T09:21:50.871Z,3.50
2023-02-26T09:24:18.059Z,4.57
2023-02-26T09:26:45.034Z,3.70
2023-02-26T09:29:13.388Z,3.80
2023-02-26T09:31:40.409Z,4.38
2023-02-26T09:34:09.277Z,3.88
2023-02-26T09:36:37.673Z,3.92
2023-02-26T09:39:04.900Z,3.75
2023-02-26T09:41:39.085Z,3.72
2023-02-26T09:44:28.138Z,4.28
2023-02-26T09:47:16.726Z,3.58
2023-02-26T09:50:07.347Z,3.63
2023-02-26T09:52:38.320Z,3.85
2023-02-26T09:55:12.531Z,3.50
2023-02-26T09:57:44.548Z,3.03
2023-02-26T10:00:47.650Z,3.22
2023-02-26T10:03:22.917Z,3.25
2023-02-26T10:06:10.782Z,3.33
2023-02-26T10:08:56.019Z,3.35
2023-02-26T10:11:41.644Z,3.55
2023-02-26T10:14:19.416Z,3.13
2023-02-26T10:16:51.653Z,3.40
2023-02-26T10:19:24.186Z,3.25
2023-02-26T10:22:11.254Z,3.33
2023-02-26T10:24:43.507Z,2.80
2023-02-26T10:27:16.593Z,3.30
2023-02-26T10:29:59.992Z,2.88
2023-02-26T10:32:58.144Z,3.65
2023-02-26T10:35:29.631Z,3.08
2023-02-26T10:37:59.239Z,3.38
2023-02-26T10:40:37.305Z,3.33
2023-02-26T10:43:22.191Z,3.72
2023-02-26T10:45:52.721Z,3.33
2023-02-26T10:48:25.247Z,3.00
2023-02-26T10:50:54.666Z,3.30
2023-02-26T10:53:22.230Z,2.83
2023-02-26T10:55:51.877Z,3.00
2023-02-26T10:58:23.906Z,3.05
2023-02-26T11:00:54.455Z,3.08
2023-02-26T11:03:34.325Z,2.85
2023-02-26T11:06:06.021Z,2.60
2023-02-26T11:08:40.902Z,2.60
2023-02-26T11:11:08.113Z,2.70
2023-02-26T11:13:38.940Z,2.20
2023-02-26T11:16:15.508Z,2.80
2023-02-26T11:18:48.528Z,2.42
2023-02-26T11:21:24.741Z,1.80
2023-02-26T11:24:03.163Z,2.22
2023-02-26T11:26:34.652Z,2.28
2023-02-26T11:29:02.208Z,2.40
2023-02-26T11:31:30.532Z,2.42
2023-02-26T11:34:05.152Z,2.58
2023-02-26T11:36:34.356Z,2.50
2023-02-26T11:39:06.351Z,2.78
2023-02-26T11:41:38.416Z,2.63
2023-02-26T11:44:15.626Z,2.60
2023-02-26T11:46:51.158Z,3.08
2023-02-26T11:49:21.791Z,2.70
2023-02-26T11:52:01.898Z,2.60
2023-02-26T11:54:29.690Z,2.60
2023-02-26T11:57:21.053Z,2.90
2023-02-26T11:59:51.123Z,3.28
2023-02-26T12:02:24.547Z,2.55
2023-02-26T12:04:55.250Z,2.65
2023-02-26T12:07:22.842Z,2.92
2023-02-26T12:09:50.119Z,3.15
2023-02-26T12:12:32.648Z,2.53
2023-02-26T12:15:21.534Z,2.95
2023-02-26T12:17:51.245Z,2.90
2023-02-26T12:20:25.958Z,3.13
2023-02-26T12:23:15.848Z,3.38
2023-02-26T12:26:03.586Z,2.90
2023-02-26T12:28:45.139Z,2.80
2023-02-26T12:31:33.950Z,3.17
2023-02-26T12:34:20.431Z,2.97
2023-02-26T12:36:58.264Z,3.15
2023-02-26T12:39:43.165Z,3.15
2023-02-26T12:42:26.812Z,2.60
2023-02-26T12:45:18.347Z,2.50
2023-02-26T12:48:04.457Z,2.08
2023-02-26T12:50:54.010Z,2.20
2023-02-26T12:53:39.273Z,2.25
2023-02-26T12:56:33.522Z,2.67
2023-02-26T12:59:07.787Z,2.58
2023-02-26T13:02:15.853Z,2.72
2023-02-26T13:05:36.865Z,2.50
2023-02-26T13:08:13.741Z,3.55
2023-02-26T13:11:11.279Z,3.05
2023-02-26T13:13:52.941Z,3.78
2023-02-26T13:16:39.364Z,3.40
2023-02-26T13:19:13.553Z,3.63
2023-02-26T13:21:48.951Z,3.67
2023-02-26T13:24:22.953Z,3.13
2023-02-26T13:26:51.471Z,3.30
2023-02-26T13:29:25.164Z,3.83
2023-02-26T13:32:26.023Z,3.93
2023-02-26T13:34:55.490Z,3.30
2023-02-26T13:37:33.862Z,3.00
2023-02-26T13:40:34.917Z,3.80
2023-02-26T13:43:30.037Z,3.20
2023-02-26T13:46:11.420Z,6.22
2023-02-26T13:49:10.228Z,2.97
2023-02-26T13:51:41.566Z,3.38
2023-02-26T13:54:17.431Z,3.00
2023-02-26T13:56:55.771Z,2.95
2023-02-26T13:59:31.636Z,3.10
2023-02-26T14:02:03.684Z,3.10
2023-02-26T14:04:54.074Z,3.28
2023-02-26T14:07:53.026Z,3.80
2023-02-26T14:10:33.834Z,3.30
2023-02-26T14:13:20.603Z,3.50
2023-02-26T14:16:11.794Z,3.20
2023-02-26T14:19:06.315Z,3.80
2023-02-26T14:21:33.138Z,3.95
2023-02-26T14:24:06.757Z,4.13
2023-02-26T14:26:37.097Z,4.07
2023-02-26T14:29:06.757Z,4.10
2023-02-26T14:32:05.974Z,3.63
2023-02-26T14:34:42.082Z,3.58
2023-02-26T14:37:16.269Z,3.80
2023-02-26T14:39:53.453Z,3.50
2023-02-26T14:42:27.092Z,4.03
2023-02-26T14:45:09.709Z,3.65
2023-02-26T14:47:37.901Z,3.30
2023-02-26T14:50:07.248Z,3.33
2023-02-26T14:52:47.300Z,3.95
2023-02-26T14:55:17.182Z,3.67
2023-02-26T14:58:02.374Z,3.65
2023-02-26T15:03:16.037Z,3.53
2023-02-26T15:06:10.404Z,3.53
2023-02-26T15:08:43.439Z,4.20
2023-02-26T15:11:50.548Z,3.88
2023-02-26T15:14:29.889Z,3.47
2023-02-26T15:17:29.153Z,3.35
2023-02-26T15:20:33.922Z,3.20
2023-02-26T15:23:03.491Z,3.60
2023-02-26T15:25:40.933Z,3.50
2023-02-26T15:28:13.774Z,3.75
2023-02-26T15:30:43.816Z,3.60
2023-02-26T15:33:16.370Z,8.98
2023-02-26T15:35:44.823Z,3.72
2023-02-26T15:38:11.825Z,3.75
2023-02-26T15:40:39.466Z,3.60
2023-02-26T15:43:09.343Z,3.90
2023-02-26T15:45:43.485Z,4.07
2023-02-26T15:48:16.884Z,4.20
2023-02-26T15:50:47.876Z,4.38
2023-02-26T15:53:29.965Z,3.40
2023-02-26T15:56:00.795Z,3.75
2023-02-26T15:58:53.502Z,4.07
2023-02-26T16:01:23.799Z,4.15
2023-02-26T16:03:53.179Z,3.83
2023-02-26T16:06:25.733Z,4.50
2023-02-26T16:08:52.916Z,3.83
2023-02-26T16:11:21.547Z,3.55
2023-02-26T16:13:52.900Z,3.53
2023-02-26T16:16:28.123Z,3.70
2023-02-26T16:18:57.725Z,4.30
2023-02-26T16:21:31.449Z,3.88
2023-02-26T16:24:00.352Z,4.07
2023-02-26T16:26:32.740Z,4.10
2023-02-26T16:29:04.513Z,4.22
2023-02-26T16:31:37.269Z,3.78
2023-02-26T16:34:08.976Z,4.32
2023-02-26T16:36:41.568Z,4.57
2023-02-26T16:39:08.450Z,4.60
2023-02-26T16:41:38.576Z,4.15
2023-02-26T16:44:38.053Z,4.25
2023-02-26T16:47:05.730Z,3.70
2023-02-26T16:49:35.756Z,4.68
2023-02-26T16:52:03.647Z,4.93
2023-02-26T16:54:41.134Z,4.75
2023-02-26T16:57:19.975Z,4.80
2023-02-26T16:59:55.522Z,4.97
2023-02-26T17:02:33.111Z,4.40
2023-02-26T17:05:05.917Z,4.72
2023-02-26T17:07:36.393Z,4.45
2023-02-26T17:10:29.420Z,3.53
2023-02-26T17:13:05.058Z,4.47
2023-02-26T17:15:36.447Z,4.40
2023-02-26T17:18:04.254Z,4.13
2023-02-26T17:20:32.031Z,4.78
2023-02-26T17:23:01.481Z,4.45
2023-02-26T17:25:42.416Z,4.55
2023-02-26T17:28:16.499Z,4.00
2023-02-26T17:30:43.524Z,4.22
2023-02-26T17:33:13.744Z,4.07
2023-02-26T17:35:41.961Z,4.55
2023-02-26T17:38:13.393Z,4.43
2023-02-26T17:40:41.966Z,4.00
2023-02-26T17:43:10.185Z,4.18
2023-02-26T17:45:40.302Z,3.85
2023-02-26T17:48:08.396Z,3.85
2023-02-26T17:50:40.924Z,3.53
2023-02-26T17:53:08.866Z,4.00
2023-02-26T17:55:39.348Z,3.88
2023-02-26T17:58:08.575Z,4.40
2023-02-26T18:00:40.728Z,4.90
2023-02-26T18:03:09.976Z,4.28
2023-02-26T18:05:39.306Z,3.50
2023-02-26T18:08:06.967Z,4.78
2023-02-26T18:10:33.982Z,4.10
2023-02-26T18:13:00.899Z,5.32
2023-02-26T18:15:27.818Z,4.28
2023-02-26T18:17:54.747Z,4.43
2023-02-26T18:20:22.804Z,3.30
2023-02-26T18:22:50.578Z,4.18
2023-02-26T18:25:18.210Z,2.65
2023-02-26T18:27:47.967Z,3.33
2023-02-26T18:30:22.732Z,3.20
2023-02-26T18:35:18.017Z,2.72
2023-02-26T18:37:45.911Z,2.20
2023-02-26T18:40:16.005Z,2.65
2023-02-26T18:42:43.544Z,2.97
2023-02-26T18:45:11.796Z,2.63
2023-02-26T18:47:39.671Z,3.03
2023-02-26T18:50:07.987Z,2.67
2023-02-26T18:52:35.803Z,2.80
2023-02-26T18:55:03.227Z,2.55
2023-02-26T18:57:30.801Z,2.50
2023-02-26T18:59:57.701Z,3.42
2023-02-26T19:02:25.166Z,2.70
2023-02-26T19:04:52.510Z,3.00
2023-02-26T19:07:19.889Z,2.42
2023-02-26T19:09:47.277Z,2.30
2023-02-26T19:12:18.882Z,2.63
2023-02-26T19:14:46.453Z,1.95
2023-02-26T19:17:13.844Z,2.33
2023-02-26T19:19:42.372Z,2.33
2023-02-26T19:22:10.642Z,2.05
2023-02-26T19:24:37.768Z,2.00
2023-02-26T19:27:04.701Z,2.70
2023-02-26T19:29:33.974Z,2.78
2023-02-26T19:32:01.300Z,2.85
2023-02-26T19:34:28.372Z,2.60
2023-02-26T19:36:56.409Z,2.20
2023-02-26T19:39:24.307Z,2.88
2023-02-26T19:41:54.363Z,2.10
2023-02-26T19:44:22.769Z,2.55
2023-02-26T19:46:50.612Z,1.95
2023-02-26T19:49:18.937Z,2.28
2023-02-26T19:51:46.274Z,1.58
2023-02-26T19:54:14.312Z,2.15
2023-02-26T19:56:43.246Z,1.80
2023-02-26T19:59:10.928Z,1.52
2023-02-26T20:01:37.929Z,1.55
2023-02-26T20:04:04.968Z,1.83
2023-02-26T20:06:32.026Z,1.77
2023-02-26T20:08:59.118Z,1.80
2023-02-26T20:11:26.820Z,2.00
2023-02-26T20:13:53.943Z,1.98
2023-02-26T20:16:20.936Z,2.15
2023-02-26T20:18:47.926Z,1.80
2023-02-26T20:21:15.422Z,2.10
2023-02-26T20:23:43.323Z,2.00
2023-02-26T20:26:15.563Z,1.92
2023-02-26T20:28:43.530Z,1.60
2023-02-26T20:31:11.390Z,2.20
2023-02-26T20:33:39.825Z,1.90
2023-02-26T20:36:10.483Z,1.75
2023-02-26T20:38:38.557Z,2.25
2023-02-26T20:41:05.893Z,1.95
2023-02-26T20:43:33.472Z,1.88
2023-02-26T20:46:00.557Z,2.00
2023-02-26T20:48:27.566Z,1.63
2023-02-26T20:51:00.392Z,1.90
2023-02-26T20:53:28.060Z,2.10
2023-02-26T20:55:57.257Z,1.92
2023-02-26T20:58:26.198Z,2.25
2023-02-26T21:00:58.053Z,2.45
2023-02-26T21:03:26.235Z,2.53
2023-02-26T21:05:54.417Z,1.73
2023-02-26T21:08:24.258Z,1.85
2023-02-26T21:10:52.379Z,2.00
2023-02-26T21:13:20.028Z,2.00
2023-02-26T21:15:50.995Z,2.08
2023-02-26T21:18:18.343Z,1.92
2023-02-26T21:20:45.337Z,2.20
2023-02-26T21:23:12.444Z,1.92
2023-02-26T21:25:40.185Z,2.03
2023-02-26T21:28:07.569Z,1.90
2023-02-26T21:30:36.282Z,1.70
2023-02-26T21:33:03.696Z,1.90
2023-02-26T21:35:32.109Z,1.80
2023-02-26T21:38:00.569Z,2.60
2023-02-26T21:40:28.346Z,2.45
2023-02-26T21:42:55.326Z,2.40
2023-02-26T21:45:22.241Z,2.00
2023-02-26T21:47:49.238Z,2.08
2023-02-26T21:50:16.304Z,2.10
2023-02-26T21:52:44.055Z,2.08
2023-02-26T21:55:11.694Z,1.55
2023-02-26T21:57:38.942Z,1.58
2023-02-26T22:00:10.288Z,1.65
2023-02-26T22:02:40.449Z,1.63
2023-02-26T22:05:07.655Z,1.70
2023-02-26T22:07:34.776Z,1.85
2023-02-26T22:10:01.776Z,1.55
2023-02-26T22:12:28.662Z,1.77
2023-02-26T22:14:55.991Z,1.88
2023-02-26T22:17:23.626Z,2.53
2023-02-26T22:19:51.743Z,1.38
2023-02-26T22:22:19.021Z,1.48
2023-02-26T22:24:46.003Z,1.90
2023-02-26T22:27:13.039Z,1.80
2023-02-26T22:29:40.119Z,2.17
2023-02-26T22:32:07.346Z,1.75
2023-02-26T22:34:34.556Z,1.65
2023-02-26T22:37:01.809Z,1.90
2023-02-26T22:39:28.852Z,2.30
2023-02-26T22:41:55.767Z,1.88
2023-02-26T22:44:22.745Z,2.25
2023-02-26T22:46:50.136Z,1.88
2023-02-26T22:49:18.163Z,1.67
2023-02-26T22:51:46.002Z,2.13
2023-02-26T22:54:13.097Z,2.10
2023-02-26T22:56:40.059Z,1.80
2023-02-26T22:59:06.948Z,2.40
2023-02-26T23:01:33.976Z,2.15
2023-02-26T23:04:01.012Z,2.10
2023-02-26T23:06:27.985Z,2.15
2023-02-26T23:08:54.866Z,2.58
2023-02-26T23:11:21.839Z,1.83
2023-02-26T23:13:48.772Z,1.23
2023-02-26T23:16:16.002Z,1.40
2023-02-26T23:18:45.621Z,1.67
2023-02-26T23:21:12.650Z,1.75
2023-02-26T23:23:39.874Z,1.65
2023-02-26T23:26:07.611Z,1.65
2023-02-26T23:28:35.200Z,1.30
2023-02-26T23:31:02.541Z,1.10
2023-02-26T23:33:29.443Z,1.73
2023-02-26T23:35:56.925Z,1.48
2023-02-26T23:38:23.976Z,1.40
2023-02-26T23:40:51.053Z,1.55
2023-02-26T23:43:18.162Z,1.58
2023-02-26T23:45:45.135Z,1.55
2023-02-26T23:48:12.030Z,1.65
2023-02-26T23:50:39.013Z,1.50
2023-02-26T23:53:06.194Z,1.27
2023-02-26T23:55:33.179Z,1.65
2023-02-26T23:58:00.149Z,1.48
